Time;durP1;ratioP1;P1;durP2;ratioP2;P2;SDS_P1;SDS_P2;PMS_P1;PMS_P2;Temp;Humidity;BMP_temperature;BMP_pressure;BME280_temperature;BME280_humidity;BME280_pressure;Samples;Min_cycle;Max_cycle;Signal;HPM_P1;HPM_P2
2022/03/05 00:01:34;;;;;;;9.10;5.87;;;;;;;;;;4479303;28;20541;-62
2022/03/05 00:03:45;;;;;;;8.70;5.68;;;;;;;;;;4480371;28;20093;-62
2022/03/05 00:05:56;;;;;;;9.67;6.13;;;;;;;;;;4482347;28;20730;-62
2022/03/05 00:08:07;;;;;;;9.20;5.70;;;;;;;;;;4480117;28;20045;-62
2022/03/05 00:10:21;;;;;;;;;;;;;;;;;;4478146;28;20038;-62
2022/03/05 00:12:31;;;;;;;9.23;5.63;;;;;;;;;;4481176;28;19918;-62
2022/03/05 00:14:42;;;;;;;9.77;5.67;;;;;;;;;;4478890;28;20054;-62
2022/03/05 00:16:52;;;;;;;9.63;6.17;;;;;;;;;;4481018;28;20048;-62
2022/03/05 00:19:02;;;;;;;10.10;5.97;;;;;;;;;;4479644;28;20035;-62
2022/03/05 00:21:13;;;;;;;9.63;5.67;;;;;;;;;;4479569;28;36748;-62
2022/03/05 00:23:24;;;;;;;10.23;6.17;;;;;;;;;;4479279;28;20125;-62
2022/03/05 00:25:35;;;;;;;9.45;6.10;;;;;;;;;;4482227;28;20053;-63
2022/03/05 00:27:46;;;;;;;9.73;6.20;;;;;;;;;;4484248;28;20534;-63
2022/03/05 00:29:58;;;;;;;9.82;6.18;;;;;;;;;;4484457;28;20034;-63
2022/03/05 00:32:08;;;;;;;10.07;6.60;;;;;;;;;;4487199;28;20484;-63
2022/03/05 00:34:18;;;;;;;11.00;6.63;;;;;;;;;;4484748;28;20039;-61
2022/03/05 00:36:30;;;;;;;9.83;6.43;;;;;;;;;;4484116;28;20391;-60
2022/03/05 00:38:41;;;;;;;10.70;7.00;;;;;;;;;;4487932;28;20038;-61
2022/03/05 00:40:51;;;;;;;10.43;6.63;;;;;;;;;;4486733;28;20043;-61
2022/03/05 00:43:02;;;;;;;10.70;6.77;;;;;;;;;;4484511;28;20033;-61
2022/03/05 00:45:12;;;;;;;10.10;6.53;;;;;;;;;;4483982;28;20093;-61
2022/03/05 00:47:22;;;;;;;9.73;6.20;;;;;;;;;;4489223;28;25597;-60
2022/03/05 00:49:34;;;;;;;10.40;6.75;;;;;;;;;;4488640;28;21277;-61
2022/03/05 00:51:44;;;;;;;10.57;6.50;;;;;;;;;;4485528;28;23585;-60
2022/03/05 00:53:55;;;;;;;10.93;7.17;;;;;;;;;;4483671;28;20125;-61
2022/03/05 00:56:05;;;;;;;11.73;7.57;;;;;;;;;;4484463;28;20146;-61
2022/03/05 00:58:16;;;;;;;10.23;6.87;;;;;;;;;;4486263;28;40407;-60
2022/03/05 01:00:26;;;;;;;11.07;7.20;;;;;;;;;;4482737;28;20054;-61
2022/03/05 01:02:38;;;;;;;11.13;7.27;;;;;;;;;;4485505;28;27857;-61
2022/03/05 01:04:48;;;;;;;11.90;7.47;;;;;;;;;;4485243;28;20065;-61
2022/03/05 01:06:59;;;;;;;11.83;7.50;;;;;;;;;;4483996;28;20042;-60
2022/03/05 01:09:09;;;;;;;11.57;7.67;;;;;;;;;;4483239;28;20120;-61
2022/03/05 01:11:20;;;;;;;10.50;7.57;;;;;;;;;;4483334;28;20026;-61
2022/03/05 01:13:30;;;;;;;11.33;7.37;;;;;;;;;;4469747;28;20605;-61
2022/03/05 01:15:41;;;;;;;10.97;7.30;;;;;;;;;;4483179;28;20443;-61
2022/03/05 01:17:51;;;;;;;11.57;7.60;;;;;;;;;;4472979;28;20033;-61
2022/03/05 01:20:03;;;;;;;12.97;8.30;;;;;;;;;;4484068;28;20088;-60
2022/03/05 01:22:13;;;;;;;12.40;8.15;;;;;;;;;;4483651;28;20144;-60
2022/03/05 01:24:24;;;;;;;10.48;7.00;;;;;;;;;;4484644;28;20550;-60
2022/03/05 01:26:36;;;;;;;12.77;8.00;;;;;;;;;;4488536;28;20042;-62
2022/03/05 01:28:46;;;;;;;11.90;7.90;;;;;;;;;;4487531;28;20392;-61
2022/03/05 01:30:57;;;;;;;10.53;7.10;;;;;;;;;;4482652;28;20041;-61
2022/03/05 01:33:08;;;;;;;12.25;8.18;;;;;;;;;;4483048;28;24004;-62
2022/03/05 01:35:18;;;;;;;12.07;8.57;;;;;;;;;;4481131;28;20102;-62
2022/03/05 01:37:29;;;;;;;10.90;7.30;;;;;;;;;;4482545;28;20031;-61
2022/03/05 01:39:41;;;;;;;11.67;7.63;;;;;;;;;;4481491;28;23000;-61
2022/03/05 01:41:55;;;;;;;12.15;7.78;;;;;;;;;;4483840;28;20470;-62
2022/03/05 01:44:05;;;;;;;11.13;7.70;;;;;;;;;;4481470;28;20037;-62
2022/03/05 01:46:36;;;;;;;12.23;8.37;;;;;;;;;;4491996;28;20503;-61
2022/03/05 01:48:47;;;;;;;12.10;8.05;;;;;;;;;;4482902;28;20153;-62
2022/03/05 01:50:58;;;;;;;11.80;7.43;;;;;;;;;;4483867;28;22648;-62
2022/03/05 01:53:08;;;;;;;11.65;7.68;;;;;;;;;;4481593;28;20896;-61
2022/03/05 01:55:19;;;;;;;12.77;8.27;;;;;;;;;;4484227;28;20034;-62
2022/03/05 01:57:30;;;;;;;12.20;7.90;;;;;;;;;;4481348;28;20030;-62
2022/03/05 01:59:40;;;;;;;12.33;8.03;;;;;;;;;;4484037;28;20035;-62
2022/03/05 02:01:51;;;;;;;12.13;7.93;;;;;;;;;;4484135;28;20270;-62
2022/03/05 02:04:02;;;;;;;12.43;8.27;;;;;;;;;;4480412;28;20118;-63
2022/03/05 02:06:12;;;;;;;12.82;8.10;;;;;;;;;;4484239;28;20759;-62
2022/03/05 02:08:23;;;;;;;12.47;7.93;;;;;;;;;;4482848;28;20038;-62
2022/03/05 02:10:33;;;;;;;11.90;7.87;;;;;;;;;;4483727;28;22619;-61
2022/03/05 02:12:44;;;;;;;12.93;8.53;;;;;;;;;;4482266;28;20029;-62
2022/03/05 02:14:55;;;;;;;12.68;7.85;;;;;;;;;;4481509;28;20967;-61
2022/03/05 02:17:06;;;;;;;11.55;7.90;;;;;;;;;;4481683;28;20038;-62
2022/03/05 02:19:17;;;;;;;12.10;8.13;;;;;;;;;;4485853;28;20049;-61
2022/03/05 02:21:27;;;;;;;11.32;8.30;;;;;;;;;;4484739;28;20043;-61
2022/03/05 02:23:38;;;;;;;12.13;8.33;;;;;;;;;;4482614;28;20030;-62
2022/03/05 02:25:53;;;;;;;13.77;8.77;;;;;;;;;;4483012;28;31352;-61
2022/03/05 02:28:04;;;;;;;11.85;7.97;;;;;;;;;;4482344;28;20984;-62
2022/03/05 02:30:14;;;;;;;11.70;7.53;;;;;;;;;;4481659;28;38670;-62
2022/03/05 02:32:25;;;;;;;12.00;8.10;;;;;;;;;;4465611;28;20126;-62
2022/03/05 02:34:35;;;;;;;12.33;8.10;;;;;;;;;;4479816;28;20042;-61
2022/03/05 02:36:46;;;;;;;13.03;8.57;;;;;;;;;;4482676;28;20035;-62
2022/03/05 02:38:56;;;;;;;12.53;7.67;;;;;;;;;;4482857;28;20066;-61
2022/03/05 02:41:06;;;;;;;11.77;7.83;;;;;;;;;;4483712;28;20037;-61
2022/03/05 02:43:18;;;;;;;11.77;7.87;;;;;;;;;;4480823;28;20617;-61
2022/03/05 02:45:28;;;;;;;12.10;7.93;;;;;;;;;;4481820;28;20066;-62
2022/03/05 02:47:39;;;;;;;13.70;9.10;;;;;;;;;;4481557;28;20426;-62
2022/03/05 02:49:49;;;;;;;12.60;7.67;;;;;;;;;;4484280;28;20042;-61
2022/03/05 02:52:00;;;;;;;11.90;7.77;;;;;;;;;;4483011;28;20045;-62
2022/03/05 02:54:10;;;;;;;13.83;8.50;;;;;;;;;;4486051;28;20086;-61
2022/03/05 02:56:21;;;;;;;12.77;8.30;;;;;;;;;;4483226;28;20084;-62
2022/03/05 02:58:32;;;;;;;11.75;8.23;;;;;;;;;;4481057;28;20076;-61
2022/03/05 03:00:42;;;;;;;11.60;7.90;;;;;;;;;;4475326;28;20086;-61
2022/03/05 03:02:53;;;;;;;12.80;8.00;;;;;;;;;;4479978;28;20137;-62
2022/03/05 03:05:03;;;;;;;12.63;8.43;;;;;;;;;;4482492;28;34145;-61
2022/03/05 03:07:14;;;;;;;11.73;7.97;;;;;;;;;;4482600;28;20030;-61
2022/03/05 03:09:24;;;;;;;12.10;7.93;;;;;;;;;;4481970;28;20038;-61
2022/03/05 03:11:35;;;;;;;12.33;8.10;;;;;;;;;;4480716;28;34214;-61
2022/03/05 03:13:46;;;;;;;13.18;8.63;;;;;;;;;;4483335;28;20042;-61
2022/03/05 03:15:56;;;;;;;12.53;8.20;;;;;;;;;;4483764;28;33520;-61
2022/03/05 03:18:07;;;;;;;12.77;8.83;;;;;;;;;;4488244;28;20031;-61
2022/03/05 03:20:24;;;;;;;12.53;8.53;;;;;;;;;;4481807;28;25721;-62
2022/03/05 03:22:34;;;;;;;12.40;8.05;;;;;;;;;;4482887;28;20101;-61
2022/03/05 03:24:45;;;;;;;13.70;8.90;;;;;;;;;;4481751;28;20537;-61
2022/03/05 03:26:55;;;;;;;13.27;8.33;;;;;;;;;;4480435;28;20034;-62
2022/03/05 03:29:05;;;;;;;12.30;7.83;;;;;;;;;;4486300;28;30968;-61
2022/03/05 03:31:16;;;;;;;12.10;8.03;;;;;;;;;;4481398;28;20043;-61
2022/03/05 03:33:26;;;;;;;11.13;7.80;;;;;;;;;;4480879;28;24594;-61
2022/03/05 03:35:37;;;;;;;12.37;8.43;;;;;;;;;;4483422;28;20027;-61
2022/03/05 03:37:47;;;;;;;13.07;8.80;;;;;;;;;;4465500;28;20035;-61
2022/03/05 03:40:00;;;;;;;11.82;7.93;;;;;;;;;;4481500;28;20039;-61
2022/03/05 03:42:10;;;;;;;;;;;;;;;;;;4489102;28;20046;-62
2022/03/05 03:44:21;;;;;;;13.02;8.88;;;;;;;;;;4467442;28;19914;-61
2022/03/05 03:46:31;;;;;;;13.73;8.30;;;;;;;;;;4483663;28;23254;-61
2022/03/05 03:48:42;;;;;;;13.43;8.27;;;;;;;;;;4483722;28;20759;-62
2022/03/05 03:50:52;;;;;;;12.70;8.27;;;;;;;;;;4482299;28;20038;-62
2022/03/05 03:53:03;;;;;;;12.67;8.50;;;;;;;;;;4484106;28;20031;-61
2022/03/05 03:55:17;;;;;;;12.20;8.37;;;;;;;;;;4482124;28;20037;-61
2022/03/05 03:57:27;;;;;;;12.75;8.52;;;;;;;;;;4481568;28;20045;-62
2022/03/05 03:59:38;;;;;;;12.50;8.03;;;;;;;;;;4480594;28;20046;-61
2022/03/05 04:01:48;;;;;;;12.70;8.40;;;;;;;;;;4480301;28;21628;-61
2022/03/05 04:03:59;;;;;;;12.73;8.80;;;;;;;;;;4479697;28;37834;-61
2022/03/05 04:06:09;;;;;;;12.17;8.40;;;;;;;;;;4484150;28;20042;-61
2022/03/05 04:09:02;;;;;;;13.67;9.10;;;;;;;;;;4483365;28;20094;-61
2022/03/05 04:10:53;;;;;;;11.73;8.48;;;;;;;;;;4485530;28;20783;-61
2022/03/05 04:13:03;;;;;;;12.37;8.40;;;;;;;;;;4483574;28;20038;-62
2022/03/05 04:15:14;;;;;;;14.03;8.77;;;;;;;;;;4481517;28;20066;-62
2022/03/05 04:17:24;;;;;;;11.90;8.20;;;;;;;;;;4481603;28;20561;-62
2022/03/05 04:19:35;;;;;;;13.73;9.07;;;;;;;;;;4479123;28;41992;-62
2022/03/05 04:21:46;;;;;;;13.07;8.87;;;;;;;;;;4495727;28;20581;-62
2022/03/05 04:23:56;;;;;;;12.70;8.30;;;;;;;;;;4480213;28;29406;-62
2022/03/05 04:26:07;;;;;;;12.67;9.13;;;;;;;;;;4480836;28;20053;-62
2022/03/05 04:28:17;;;;;;;11.87;8.57;;;;;;;;;;4480521;28;38034;-62
2022/03/05 04:30:27;;;;;;;12.70;8.73;;;;;;;;;;4482860;28;20086;-62
2022/03/05 04:32:38;;;;;;;13.37;8.83;;;;;;;;;;4480667;28;29234;-62
2022/03/05 04:34:49;;;;;;;12.30;8.48;;;;;;;;;;4480832;28;21114;-62
2022/03/05 04:36:59;;;;;;;13.60;9.03;;;;;;;;;;4479138;28;23063;-62
2022/03/05 04:39:10;;;;;;;11.43;8.10;;;;;;;;;;4481300;28;20045;-62
2022/03/05 04:41:20;;;;;;;13.00;8.73;;;;;;;;;;4479897;28;20182;-61
2022/03/05 04:43:31;;;;;;;11.70;8.40;;;;;;;;;;4477916;28;20038;-62
2022/03/05 04:45:41;;;;;;;12.23;8.17;;;;;;;;;;4481630;28;20112;-62
2022/03/05 04:47:52;;;;;;;12.63;8.60;;;;;;;;;;4480215;28;20538;-62
2022/03/05 04:50:04;;;;;;;13.37;8.70;;;;;;;;;;4478443;28;20160;-62
2022/03/05 04:52:14;;;;;;;12.50;8.77;;;;;;;;;;4479708;28;20051;-62
2022/03/05 04:54:29;;;;;;;12.53;8.40;;;;;;;;;;4478793;28;20114;-62
2022/03/05 04:56:40;;;;;;;12.77;8.85;;;;;;;;;;4479983;28;20039;-62
2022/03/05 04:58:50;;;;;;;12.40;8.20;;;;;;;;;;4480141;28;20522;-62
2022/03/05 05:01:02;;;;;;;12.40;8.13;;;;;;;;;;4479475;28;20038;-62
2022/03/05 05:03:12;;;;;;;;;;;;;;;;;;4480056;28;20468;-61
2022/03/05 05:05:24;;;;;;;11.52;8.23;;;;;;;;;;4480090;28;19917;-62
2022/03/05 05:07:34;;;;;;;12.50;8.57;;;;;;;;;;4483052;28;20376;-62
2022/03/05 05:09:45;;;;;;;13.00;8.53;;;;;;;;;;4482395;28;20042;-62
2022/03/05 05:11:55;;;;;;;12.80;8.77;;;;;;;;;;4484634;28;20106;-62
2022/03/05 05:14:06;;;;;;;13.10;9.03;;;;;;;;;;4485873;28;26897;-62
2022/03/05 05:16:16;;;;;;;14.10;9.53;;;;;;;;;;4483176;28;20397;-62
2022/03/05 05:18:27;;;;;;;12.93;8.67;;;;;;;;;;4482783;28;20062;-61
2022/03/05 05:20:37;;;;;;;12.97;8.73;;;;;;;;;;4486165;28;20030;-62
2022/03/05 05:22:48;;;;;;;13.97;9.03;;;;;;;;;;4484982;28;20118;-62
2022/03/05 05:24:59;;;;;;;13.17;8.70;;;;;;;;;;4484802;28;21732;-62
2022/03/05 05:27:10;;;;;;;;;;;;;;;;;;4485521;28;20034;-62
2022/03/05 05:29:21;;;;;;;12.63;9.07;;;;;;;;;;4473649;28;19918;-62
2022/03/05 05:31:31;;;;;;;12.93;8.85;;;;;;;;;;4488966;28;20058;-61
2022/03/05 05:33:44;;;;;;;12.93;9.20;;;;;;;;;;4482794;28;24523;-61
2022/03/05 05:35:55;;;;;;;12.95;9.13;;;;;;;;;;4482990;28;20041;-62
2022/03/05 05:38:05;;;;;;;12.70;9.00;;;;;;;;;;4486779;28;20053;-62
2022/03/05 05:40:16;;;;;;;14.00;8.80;;;;;;;;;;4479756;28;20061;-62
2022/03/05 05:42:26;;;;;;;12.60;8.60;;;;;;;;;;4483905;28;27547;-62
2022/03/05 05:44:37;;;;;;;12.53;8.73;;;;;;;;;;4485599;28;20384;-62
2022/03/05 05:46:47;;;;;;;13.67;9.50;;;;;;;;;;4482434;28;20121;-62
2022/03/05 05:48:58;;;;;;;13.90;9.40;;;;;;;;;;4484177;28;28229;-62
2022/03/05 05:51:08;;;;;;;12.20;8.67;;;;;;;;;;4488483;28;20042;-62
2022/03/05 05:53:20;;;;;;;13.52;9.50;;;;;;;;;;4481799;28;20795;-62
2022/03/05 05:55:30;;;;;;;12.83;9.40;;;;;;;;;;4483047;28;20030;-62
2022/03/05 05:57:40;;;;;;;13.70;9.20;;;;;;;;;;4482386;28;20027;-62
2022/03/05 05:59:51;;;;;;;14.03;9.33;;;;;;;;;;4482115;28;20038;-63
2022/03/05 06:02:02;;;;;;;13.57;8.70;;;;;;;;;;4484289;28;20114;-62
2022/03/05 06:04:12;;;;;;;12.73;9.33;;;;;;;;;;4483576;28;20061;-62
2022/03/05 06:06:23;;;;;;;12.90;9.50;;;;;;;;;;4482510;28;20415;-62
2022/03/05 06:08:33;;;;;;;12.97;8.67;;;;;;;;;;4481432;28;20046;-63
2022/03/05 06:10:43;;;;;;;12.60;8.87;;;;;;;;;;4481417;28;20034;-62
2022/03/05 06:12:54;;;;;;;14.30;10.20;;;;;;;;;;4481565;28;31825;-62
2022/03/05 06:15:08;;;;;;;12.40;8.70;;;;;;;;;;4485266;28;20438;-62
2022/03/05 06:17:18;;;;;;;12.55;8.63;;;;;;;;;;4484068;28;20041;-62
2022/03/05 06:19:29;;;;;;;13.73;9.60;;;;;;;;;;4486043;28;32584;-62
2022/03/05 06:21:39;;;;;;;13.97;9.67;;;;;;;;;;4483286;28;20039;-65
2022/03/05 06:23:50;;;;;;;14.07;9.60;;;;;;;;;;4481086;28;28188;-62
2022/03/05 06:26:00;;;;;;;13.57;9.27;;;;;;;;;;4486167;28;20108;-62
2022/03/05 06:28:11;;;;;;;13.07;9.53;;;;;;;;;;4483085;28;20039;-62
2022/03/05 06:30:22;;;;;;;13.17;9.03;;;;;;;;;;4481005;28;20036;-62
2022/03/05 06:32:32;;;;;;;14.73;9.73;;;;;;;;;;4480928;28;20105;-62
2022/03/05 06:34:43;;;;;;;13.30;9.30;;;;;;;;;;4480062;28;20271;-62
2022/03/05 06:36:54;;;;;;;13.07;8.97;;;;;;;;;;4482995;28;20505;-62
2022/03/05 06:39:05;;;;;;;14.38;9.27;;;;;;;;;;4481784;28;20034;-62
2022/03/05 06:41:15;;;;;;;12.93;9.00;;;;;;;;;;4482189;28;20862;-62
2022/03/05 06:43:26;;;;;;;13.00;8.77;;;;;;;;;;4480989;28;20034;-62
2022/03/05 06:45:36;;;;;;;13.43;9.53;;;;;;;;;;4481083;28;20502;-62
2022/03/05 06:47:47;;;;;;;13.10;9.03;;;;;;;;;;4482562;28;20039;-62
2022/03/05 06:49:57;;;;;;;14.23;9.63;;;;;;;;;;4481067;28;20561;-62
2022/03/05 06:52:10;;;;;;;13.47;9.57;;;;;;;;;;4481306;28;20039;-62
2022/03/05 06:54:20;;;;;;;13.68;9.30;;;;;;;;;;4482923;28;20027;-62
2022/03/05 06:56:31;;;;;;;12.67;9.10;;;;;;;;;;4481833;28;20035;-62
2022/03/05 06:58:41;;;;;;;13.70;9.77;;;;;;;;;;4483800;28;20383;-62
2022/03/05 07:00:52;;;;;;;13.70;9.60;;;;;;;;;;4481513;28;40407;-62
2022/03/05 07:03:02;;;;;;;13.83;9.33;;;;;;;;;;4481867;28;20046;-62
2022/03/05 07:05:13;;;;;;;13.57;9.40;;;;;;;;;;4479754;28;30964;-62
2022/03/05 07:07:24;;;;;;;12.70;9.43;;;;;;;;;;4485221;28;20583;-62
2022/03/05 07:09:34;;;;;;;11.47;8.47;;;;;;;;;;4480880;28;31457;-62
2022/03/05 07:11:45;;;;;;;11.67;8.60;;;;;;;;;;4483287;28;20034;-62
2022/03/05 07:13:55;;;;;;;13.97;9.47;;;;;;;;;;4484264;28;20581;-62
2022/03/05 07:16:05;;;;;;;13.13;9.53;;;;;;;;;;4483124;28;20031;-61
2022/03/05 07:18:16;;;;;;;13.30;9.53;;;;;;;;;;4481456;28;20039;-62
2022/03/05 07:20:26;;;;;;;12.80;9.03;;;;;;;;;;4486443;28;20755;-61
2022/03/05 07:22:37;;;;;;;12.47;9.07;;;;;;;;;;4485722;28;20026;-62
2022/03/05 07:24:47;;;;;;;12.67;9.13;;;;;;;;;;4480772;28;20499;-62
2022/03/05 07:26:58;;;;;;;13.63;9.60;;;;;;;;;;4483917;28;20144;-61
2022/03/05 07:29:08;;;;;;;13.20;9.03;;;;;;;;;;4481797;28;20034;-62
2022/03/05 07:31:19;;;;;;;13.73;9.03;;;;;;;;;;4483685;28;20494;-62
2022/03/05 07:33:29;;;;;;;13.00;8.80;;;;;;;;;;4481730;28;20034;-62
2022/03/05 07:35:40;;;;;;;12.60;8.73;;;;;;;;;;4485203;28;20038;-62
2022/03/05 07:37:51;;;;;;;12.90;8.85;;;;;;;;;;4481588;28;20044;-62
2022/03/05 07:40:03;;;;;;;13.65;8.95;;;;;;;;;;4482878;28;20527;-62
2022/03/05 07:42:14;;;;;;;13.65;9.52;;;;;;;;;;4481615;28;20031;-61
2022/03/05 07:44:24;;;;;;;12.30;8.40;;;;;;;;;;4483226;28;20758;-62
2022/03/05 07:46:35;;;;;;;13.03;9.33;;;;;;;;;;4482785;28;25660;-62
2022/03/05 07:48:46;;;;;;;12.93;9.65;;;;;;;;;;4484541;28;20543;-62
2022/03/05 07:50:59;;;;;;;14.33;9.70;;;;;;;;;;4486828;28;20726;-62
2022/03/05 07:53:10;;;;;;;13.15;9.60;;;;;;;;;;4482019;28;20972;-61
2022/03/05 07:55:20;;;;;;;12.43;8.97;;;;;;;;;;4482700;28;20042;-62
2022/03/05 07:57:34;;;;;;;13.63;9.47;;;;;;;;;;4479797;28;20121;-62
2022/03/05 07:59:44;;;;;;;13.13;9.68;;;;;;;;;;4480355;28;25773;-62
2022/03/05 08:01:54;;;;;;;12.83;8.77;;;;;;;;;;4480100;28;20034;-61
2022/03/05 08:04:05;;;;;;;14.17;9.40;;;;;;;;;;4486045;28;20031;-62
2022/03/05 08:06:15;;;;;;;11.83;8.40;;;;;;;;;;4475396;28;20658;-62
2022/03/05 08:08:26;;;;;;;13.30;9.27;;;;;;;;;;4483852;28;20390;-62
2022/03/05 08:10:36;;;;;;;13.23;8.93;;;;;;;;;;4485968;28;20526;-62
2022/03/05 08:12:47;;;;;;;12.60;9.27;;;;;;;;;;4481346;28;20484;-62
2022/03/05 08:14:57;;;;;;;12.83;8.80;;;;;;;;;;4482260;28;20031;-61
2022/03/05 08:17:08;;;;;;;12.50;8.67;;;;;;;;;;4481971;28;20114;-61
2022/03/05 08:19:18;;;;;;;12.57;8.53;;;;;;;;;;4478990;28;32423;-62
2022/03/05 08:21:29;;;;;;;13.10;8.50;;;;;;;;;;4480861;28;28196;-62
2022/03/05 08:23:40;;;;;;;13.60;9.10;;;;;;;;;;4486516;28;20037;-62
2022/03/05 08:25:50;;;;;;;12.40;8.50;;;;;;;;;;4481602;28;24243;-62
2022/03/05 08:28:01;;;;;;;12.37;8.53;;;;;;;;;;4468054;28;20035;-62
2022/03/05 08:30:12;;;;;;;13.07;9.60;;;;;;;;;;4480914;28;20050;-61
2022/03/05 08:32:22;;;;;;;12.90;8.82;;;;;;;;;;4481110;28;20039;-62
2022/03/05 08:34:32;;;;;;;12.57;8.67;;;;;;;;;;4479703;28;20510;-61
2022/03/05 08:36:43;;;;;;;12.90;9.03;;;;;;;;;;4482727;28;20034;-61
2022/03/05 08:38:54;;;;;;;12.43;8.83;;;;;;;;;;4468911;28;20031;-61
2022/03/05 08:41:04;;;;;;;12.35;9.05;;;;;;;;;;4483304;28;20038;-61
2022/03/05 08:43:15;;;;;;;12.57;8.80;;;;;;;;;;4481367;28;20051;-61
2022/03/05 08:45:26;;;;;;;13.27;8.87;;;;;;;;;;4485372;28;20050;-62
2022/03/05 08:47:37;;;;;;;13.18;8.95;;;;;;;;;;4485784;28;20042;-62
2022/03/05 08:49:47;;;;;;;11.70;8.35;;;;;;;;;;4490376;28;20057;-61
2022/03/05 08:51:58;;;;;;;12.20;8.43;;;;;;;;;;4486025;28;20105;-61
2022/03/05 08:54:08;;;;;;;12.90;8.57;;;;;;;;;;4484854;28;20117;-61
2022/03/05 08:56:19;;;;;;;12.67;8.03;;;;;;;;;;4487281;28;20145;-61
2022/03/05 08:58:29;;;;;;;11.13;7.90;;;;;;;;;;4485162;28;20035;-61
2022/03/05 09:00:40;;;;;;;11.00;7.60;;;;;;;;;;4483242;28;20534;-61
2022/03/05 09:02:50;;;;;;;12.03;8.10;;;;;;;;;;4482093;28;20042;-61
2022/03/05 09:05:02;;;;;;;11.67;8.43;;;;;;;;;;4485701;28;20042;-62
2022/03/05 09:07:12;;;;;;;11.45;7.72;;;;;;;;;;4484475;28;20038;-61
2022/03/05 09:09:23;;;;;;;11.83;8.53;;;;;;;;;;4482627;28;20035;-62
2022/03/05 09:11:37;;;;;;;12.10;8.23;;;;;;;;;;4481457;28;20575;-61
2022/03/05 09:13:47;;;;;;;12.15;8.13;;;;;;;;;;4483572;28;21063;-61
2022/03/05 09:15:58;;;;;;;10.37;7.47;;;;;;;;;;4484726;28;20085;-61
2022/03/05 09:18:08;;;;;;;11.07;7.53;;;;;;;;;;4484244;28;20484;-61
2022/03/05 09:20:19;;;;;;;11.97;8.30;;;;;;;;;;4482280;28;20085;-61
2022/03/05 09:22:30;;;;;;;11.25;7.80;;;;;;;;;;4481815;28;20027;-61
2022/03/05 09:24:40;;;;;;;11.80;7.87;;;;;;;;;;4484667;28;20039;-61
2022/03/05 09:26:51;;;;;;;11.03;7.97;;;;;;;;;;4483076;28;20082;-61
2022/03/05 09:29:01;;;;;;;10.37;7.13;;;;;;;;;;4482434;28;20042;-60
2022/03/05 09:31:12;;;;;;;12.20;8.10;;;;;;;;;;4480878;28;20031;-60
2022/03/05 09:33:22;;;;;;;11.50;7.77;;;;;;;;;;4481943;28;20030;-62
2022/03/05 09:35:33;;;;;;;10.17;7.20;;;;;;;;;;4478933;28;20038;-62
2022/03/05 09:37:44;;;;;;;11.55;7.60;;;;;;;;;;4481279;28;20034;-62
2022/03/05 09:39:54;;;;;;;10.40;7.60;;;;;;;;;;4480487;28;20031;-63
2022/03/05 09:42:05;;;;;;;11.37;7.53;;;;;;;;;;4483787;28;20528;-61
2022/03/05 09:44:16;;;;;;;11.20;7.60;;;;;;;;;;4481941;28;20039;-63
2022/03/05 09:46:27;;;;;;;10.57;7.47;;;;;;;;;;4483950;28;20153;-64
2022/03/05 09:48:39;;;;;;;10.30;7.47;;;;;;;;;;4480852;28;20047;-62
2022/03/05 09:50:50;;;;;;;12.05;7.65;;;;;;;;;;4482416;28;20129;-65
2022/03/05 09:53:00;;;;;;;10.73;7.13;;;;;;;;;;4481983;28;20405;-62
2022/03/05 09:55:11;;;;;;;10.57;7.60;;;;;;;;;;4480341;28;20059;-62
2022/03/05 09:57:21;;;;;;;11.03;7.97;;;;;;;;;;4483358;28;20666;-62
2022/03/05 09:59:32;;;;;;;11.97;7.60;;;;;;;;;;4482546;28;20035;-62
2022/03/05 10:01:42;;;;;;;11.00;7.63;;;;;;;;;;4485843;28;20150;-62
2022/03/05 10:03:57;;;;;;;10.33;7.17;;;;;;;;;;4482820;28;20038;-62
2022/03/05 10:06:24;;;;;;;11.07;7.75;;;;;;;;;;4483622;28;20098;-61
2022/03/05 10:08:35;;;;;;;10.93;7.65;;;;;;;;;;4483806;28;20034;-61
2022/03/05 10:10:53;;;;;;;11.03;7.50;;;;;;;;;;4487241;28;20038;-61
2022/03/05 10:13:20;;;;;;;11.23;7.75;;;;;;;;;;4483961;28;20534;-60
2022/03/05 10:15:31;;;;;;;11.23;7.88;;;;;;;;;;4482065;28;20035;-61
2022/03/05 10:17:54;;;;;;;11.20;7.40;;;;;;;;;;4485170;28;20140;-61
2022/03/05 10:20:05;;;;;;;10.70;7.63;;;;;;;;;;4482289;28;20766;-62
2022/03/05 10:22:16;;;;;;;11.60;7.70;;;;;;;;;;4486081;28;20053;-62
2022/03/05 10:24:30;;;;;;;10.73;7.37;;;;;;;;;;4483836;28;20070;-63
2022/03/05 10:26:55;;;;;;;10.65;7.22;;;;;;;;;;4474664;28;20097;-62
2022/03/05 10:29:34;;;;;;;11.75;8.27;;;;;;;;;;4485671;28;20045;-62
2022/03/05 10:31:58;;;;;;;10.32;6.68;;;;;;;;;;4484509;28;20034;-62
2022/03/05 10:34:11;;;;;;;11.07;7.10;;;;;;;;;;4483322;28;20042;-62
2022/03/05 10:36:23;;;;;;;10.43;6.90;;;;;;;;;;4483944;28;20039;-62
2022/03/05 10:38:45;;;;;;;9.60;6.82;;;;;;;;;;4484030;28;20045;-62
2022/03/05 10:40:56;;;;;;;10.40;7.30;;;;;;;;;;4482246;28;20050;-62
2022/03/05 10:43:07;;;;;;;10.40;6.20;;;;;;;;;;4467862;28;20023;-62
2022/03/05 10:45:18;;;;;;;11.27;7.00;;;;;;;;;;4482210;28;20831;-62
2022/03/05 10:47:49;;;;;;;10.30;7.35;;;;;;;;;;4480601;28;20135;-62
2022/03/05 10:49:59;;;;;;;9.75;6.60;;;;;;;;;;4495907;28;20152;-62
2022/03/05 10:52:10;;;;;;;11.07;7.13;;;;;;;;;;4480107;28;25502;-61
2022/03/05 10:54:39;;;;;;;9.90;6.63;;;;;;;;;;4481829;28;20026;-61
2022/03/05 10:56:49;;;;;;;10.20;6.82;;;;;;;;;;4467968;28;20100;-61
2022/03/05 10:59:08;;;;;;;10.40;6.83;;;;;;;;;;4483003;28;20121;-61
2022/03/05 11:01:18;;;;;;;9.95;6.78;;;;;;;;;;4481250;28;20048;-61
2022/03/05 11:03:29;;;;;;;10.07;7.30;;;;;;;;;;4480302;28;20049;-66
2022/03/05 11:05:39;;;;;;;9.63;6.90;;;;;;;;;;4481110;28;20065;-75
2022/03/05 11:07:53;;;;;;;9.83;6.40;;;;;;;;;;4479602;28;20682;-71
2022/03/05 11:10:03;;;;;;;9.77;6.47;;;;;;;;;;4483161;28;20043;-69
2022/03/05 11:12:18;;;;;;;9.65;6.68;;;;;;;;;;4479315;28;20614;-72
2022/03/05 11:14:29;;;;;;;10.32;6.47;;;;;;;;;;4481791;28;20038;-60
2022/03/05 11:16:39;;;;;;;9.23;6.37;;;;;;;;;;4481877;28;20050;-60
2022/03/05 11:18:50;;;;;;;9.87;7.10;;;;;;;;;;4480560;28;20035;-60
2022/03/05 11:21:01;;;;;;;8.80;6.40;;;;;;;;;;4482336;28;20467;-61
2022/03/05 11:23:12;;;;;;;9.77;6.38;;;;;;;;;;4481940;28;20042;-61
2022/03/05 11:25:25;;;;;;;9.37;6.27;;;;;;;;;;4480873;28;20042;-60
2022/03/05 11:27:36;;;;;;;9.20;6.20;;;;;;;;;;4481743;28;20611;-61
2022/03/05 11:30:00;;;;;;;10.05;6.32;;;;;;;;;;4481814;28;20078;-61
2022/03/05 11:32:13;;;;;;;8.77;6.07;;;;;;;;;;4480400;28;20535;-61
2022/03/05 11:34:23;;;;;;;9.13;6.32;;;;;;;;;;4481787;28;20039;-61
2022/03/05 11:36:38;;;;;;;8.57;5.97;;;;;;;;;;4482382;28;20046;-61
2022/03/05 11:38:48;;;;;;;8.65;6.03;;;;;;;;;;4481752;28;20047;-61
2022/03/05 11:40:59;;;;;;;8.00;5.63;;;;;;;;;;4477690;28;20049;-61
2022/03/05 11:43:24;;;;;;;9.53;6.47;;;;;;;;;;4481263;28;20093;-61
2022/03/05 11:45:35;;;;;;;8.18;5.97;;;;;;;;;;4481706;28;20048;-61
2022/03/05 11:47:45;;;;;;;9.00;6.20;;;;;;;;;;4481096;28;20044;-61
2022/03/05 11:49:59;;;;;;;8.40;6.07;;;;;;;;;;4478771;28;20423;-61
2022/03/05 11:52:12;;;;;;;8.75;6.18;;;;;;;;;;4481406;28;20030;-61
2022/03/05 11:54:24;;;;;;;10.00;6.78;;;;;;;;;;4482203;28;20026;-60
2022/03/05 11:56:34;;;;;;;9.93;6.57;;;;;;;;;;4483714;28;20778;-61
2022/03/05 11:58:45;;;;;;;9.63;6.20;;;;;;;;;;4483580;28;20068;-61
2022/03/05 12:00:57;;;;;;;10.00;6.32;;;;;;;;;;4480631;28;20042;-61
2022/03/05 12:03:07;;;;;;;9.80;6.53;;;;;;;;;;4480721;28;20982;-61
2022/03/05 12:05:36;;;;;;;9.47;6.33;;;;;;;;;;4482297;28;20038;-61
2022/03/05 12:07:46;;;;;;;9.23;6.40;;;;;;;;;;4479431;28;20050;-61
2022/03/05 12:09:57;;;;;;;9.03;6.20;;;;;;;;;;4479602;28;20498;-61
2022/03/05 12:12:16;;;;;;;9.80;6.90;;;;;;;;;;4482781;28;20038;-61
2022/03/05 12:14:58;;;;;;;10.02;6.53;;;;;;;;;;4482139;28;20078;-61
2022/03/05 12:17:09;;;;;;;10.03;6.80;;;;;;;;;;4481589;28;20041;-61
2022/03/05 12:19:19;;;;;;;;;;;;;;;;;;4481926;28;20603;-61
2022/03/05 12:21:33;;;;;;;10.57;7.10;;;;;;;;;;4482265;28;19921;-61
2022/03/05 12:23:43;;;;;;;10.40;6.72;;;;;;;;;;4482635;28;20047;-61
2022/03/05 12:25:55;;;;;;;;;;;;;;;;;;4476219;28;20047;-61
2022/03/05 12:28:12;;;;;;;10.13;6.75;;;;;;;;;;4485309;28;19917;-61
2022/03/05 12:30:29;;;;;;;9.95;6.82;;;;;;;;;;4486037;28;20049;-61
2022/03/05 12:32:45;;;;;;;10.77;7.28;;;;;;;;;;4484059;28;20789;-61
2022/03/05 12:35:07;;;;;;;10.18;6.47;;;;;;;;;;4486006;28;20042;-61
2022/03/05 12:37:17;;;;;;;10.43;6.82;;;;;;;;;;4483156;28;20042;-61
2022/03/05 12:39:28;;;;;;;9.03;6.00;;;;;;;;;;4484656;28;20039;-62
2022/03/05 12:41:41;;;;;;;9.97;6.53;;;;;;;;;;4483428;28;20042;-60
2022/03/05 12:43:53;;;;;;;10.85;7.07;;;;;;;;;;4481765;28;20026;-59
2022/03/05 12:46:03;;;;;;;10.10;6.32;;;;;;;;;;4482534;28;20129;-61
2022/03/05 12:48:18;;;;;;;9.68;6.47;;;;;;;;;;4484420;28;20035;-60
2022/03/05 12:50:29;;;;;;;12.00;7.00;;;;;;;;;;4485897;28;20046;-60
2022/03/05 12:52:39;;;;;;;9.60;6.67;;;;;;;;;;4485847;28;20034;-61
2022/03/05 12:54:54;;;;;;;10.30;6.70;;;;;;;;;;4480845;28;20057;-61
2022/03/05 12:57:08;;;;;;;8.75;5.97;;;;;;;;;;4483359;28;20236;-60
2022/03/05 12:59:19;;;;;;;10.20;6.90;;;;;;;;;;4485719;28;20071;-61
2022/03/05 13:01:29;;;;;;;9.80;6.57;;;;;;;;;;4489036;28;20055;-61